createdAt,value
2022-08-05T00:04:56.800Z,5.15
2022-08-05T00:09:58.317Z,7.82
2022-08-05T00:15:00.304Z,5.38
2022-08-05T00:20:21.807Z,5.03
2022-08-05T00:25:23.323Z,5.45
2022-08-05T00:30:29.038Z,6.18
2022-08-05T00:35:33.613Z,8.13
2022-08-05T00:40:53.256Z,5.65
2022-08-05T00:45:55.310Z,6.97
2022-08-05T00:50:56.935Z,6.13
2022-08-05T00:55:58.493Z,6.15
2022-08-05T01:01:00.101Z,8.10
2022-08-05T01:06:03.762Z,7.35
2022-08-05T01:11:13.602Z,5.87
2022-08-05T01:16:30.620Z,7.13
2022-08-05T01:21:44.442Z,8.13
2022-08-05T01:27:23.917Z,7.35
2022-08-05T01:32:30.326Z,11.45
2022-08-05T01:37:36.553Z,9.02
2022-08-05T01:42:40.986Z,8.85
2022-08-05T01:52:49.692Z,9.00
2022-08-05T01:58:09.771Z,7.53
2022-08-05T02:03:37.608Z,7.03
2022-08-05T02:08:55.036Z,7.30
2022-08-05T02:14:12.437Z,9.50
2022-08-05T02:19:20.219Z,7.60
2022-08-05T02:24:31.225Z,9.57
2022-08-05T02:29:59.233Z,8.43
2022-08-05T02:35:02.169Z,5.05
2022-08-05T02:40:12.919Z,8.93
2022-08-05T02:45:16.322Z,10.40
2022-08-05T02:50:18.962Z,6.57
2022-08-05T02:55:53.912Z,9.32
2022-08-05T03:00:46.141Z,5.17
2022-08-05T03:06:55.961Z,6.85
2022-08-05T03:11:54.979Z,6.15
2022-08-05T03:16:43.492Z,7.05
2022-08-05T03:21:48.929Z,6.90
2022-08-05T03:26:51.304Z,6.68
2022-08-05T03:31:55.551Z,6.85
2022-08-05T03:36:59.063Z,6.10
2022-08-05T03:42:00.642Z,3.85
2022-08-05T03:47:03.636Z,4.80
2022-08-05T03:52:37.775Z,8.93
2022-08-05T03:57:42.295Z,5.55
2022-08-05T04:02:57.672Z,5.00
2022-08-05T04:08:14.745Z,7.10
2022-08-05T04:13:51.123Z,6.75
2022-08-05T04:18:54.477Z,7.40
2022-08-05T04:24:06.211Z,8.07
2022-08-05T04:29:08.673Z,8.35
2022-08-05T04:34:19.274Z,5.68
2022-08-05T04:39:35.215Z,5.07
2022-08-05T04:44:37.507Z,6.95
2022-08-05T04:50:01.782Z,8.95
2022-08-05T04:55:05.311Z,9.45
2022-08-05T05:00:16.866Z,9.30
2022-08-05T05:05:28.167Z,6.68
2022-08-05T05:10:33.256Z,8.32
2022-08-05T05:15:56.481Z,7.70
2022-08-05T05:20:56.858Z,10.55
2022-08-05T05:26:00.187Z,6.43
2022-08-05T05:31:02.363Z,8.73
2022-08-05T05:36:07.850Z,4.35
2022-08-05T05:41:12.197Z,6.25
2022-08-05T05:46:18.909Z,7.40
2022-08-05T05:51:25.519Z,7.55
2022-08-05T05:56:32.271Z,9.85
2022-08-05T06:01:38.957Z,5.22
2022-08-05T06:06:47.570Z,5.03
2022-08-05T06:12:01.054Z,7.55
2022-08-05T06:17:22.271Z,7.10
2022-08-05T06:22:30.455Z,8.60
2022-08-05T06:28:12.790Z,6.50
2022-08-05T06:32:57.492Z,6.97
2022-08-05T06:38:03.054Z,7.53
2022-08-05T06:43:57.478Z,4.30
2022-08-05T06:48:55.494Z,5.83
2022-08-05T06:54:02.627Z,6.07
2022-08-05T06:59:09.474Z,10.25
2022-08-05T07:04:13.997Z,5.88
2022-08-05T07:09:15.789Z,5.95
2022-08-05T07:14:37.178Z,7.13
2022-08-05T07:25:23.450Z,5.53
2022-08-05T07:30:30.244Z,7.38
2022-08-05T07:36:02.939Z,4.72
2022-08-05T07:41:04.418Z,8.35
2022-08-05T07:46:24.304Z,6.18
2022-08-05T07:51:36.821Z,4.32
2022-08-05T07:57:02.422Z,7.97
2022-08-05T08:02:04.061Z,7.68
2022-08-05T08:07:07.338Z,5.93
2022-08-05T08:12:19.056Z,5.78
2022-08-05T08:17:32.253Z,7.05
2022-08-05T08:22:34.122Z,5.03
2022-08-05T08:27:44.858Z,7.18
2022-08-05T08:32:49.284Z,6.30
2022-08-05T08:37:53.608Z,5.70
2022-08-05T08:45:16.839Z,4.65
2022-08-05T08:48:41.599Z,15.68
2022-08-05T08:53:45.153Z,4.88
2022-08-05T08:58:48.521Z,3.00
2022-08-05T09:03:55.402Z,4.77
2022-08-05T09:09:01.114Z,4.35
2022-08-05T09:14:54.111Z,5.88
2022-08-05T09:19:28.002Z,5.93
2022-08-05T09:24:38.036Z,7.18
2022-08-05T09:29:48.051Z,5.53
2022-08-05T09:34:59.900Z,5.72
2022-08-05T09:40:04.672Z,4.15
2022-08-05T09:46:04.982Z,2.47
2022-08-05T09:50:44.820Z,6.32
2022-08-05T09:55:56.562Z,4.35
2022-08-05T10:01:14.678Z,5.10
2022-08-05T10:06:19.518Z,4.75
2022-08-05T10:11:22.906Z,5.57
2022-08-05T10:16:38.050Z,5.32
2022-08-05T10:21:53.985Z,4.53
2022-08-05T10:27:00.647Z,5.07
2022-08-05T10:32:53.400Z,4.13
2022-08-05T10:37:26.731Z,5.68
2022-08-05T10:42:47.734Z,4.82
2022-08-05T10:48:27.630Z,5.88
2022-08-05T10:53:49.986Z,7.20
2022-08-05T10:58:54.682Z,5.72
2022-08-05T11:04:03.247Z,7.90
2022-08-05T11:09:16.399Z,5.30
2022-08-05T11:14:57.835Z,3.80
2022-08-05T11:20:17.072Z,3.88
2022-08-05T11:26:05.242Z,2.10
2022-08-05T11:30:58.558Z,4.40
2022-08-05T11:36:08.686Z,2.70
2022-08-05T11:41:54.420Z,3.90
2022-08-05T11:46:58.682Z,4.25
2022-08-05T11:52:11.129Z,3.28
2022-08-05T11:57:25.883Z,3.10
2022-08-05T12:02:32.984Z,5.30
2022-08-05T12:08:08.620Z,3.47
2022-08-05T12:13:15.839Z,5.00
2022-08-05T12:18:33.061Z,3.80
2022-08-05T12:23:35.050Z,3.78
2022-08-05T12:28:44.820Z,2.50
2022-08-05T12:38:51.332Z,2.78
2022-08-05T12:43:57.583Z,4.43
2022-08-05T12:49:12.934Z,2.65
2022-08-05T12:54:31.843Z,4.00
2022-08-05T13:00:09.075Z,3.03
2022-08-05T13:05:07.069Z,3.80
2022-08-05T13:10:19.940Z,3.50
2022-08-05T13:15:36.111Z,3.08
2022-08-05T13:20:44.118Z,3.22
2022-08-05T13:25:58.943Z,4.10
2022-08-05T13:31:03.322Z,3.30
2022-08-05T13:36:14.347Z,2.88
2022-08-05T13:41:16.599Z,3.78
2022-08-05T13:46:35.796Z,3.88
2022-08-05T13:51:46.578Z,4.13
2022-08-05T13:56:51.462Z,3.38
2022-08-05T14:02:00.024Z,4.20
2022-08-05T14:07:12.041Z,8.20
2022-08-05T14:12:32.264Z,1.85
2022-08-05T14:17:34.951Z,2.78
2022-08-05T14:22:37.120Z,2.63
2022-08-05T14:27:38.705Z,5.57
2022-08-05T14:32:49.133Z,2.10
2022-08-05T14:37:55.441Z,3.65
2022-08-05T14:42:57.561Z,4.50
2022-08-05T14:48:05.427Z,2.15
2022-08-05T14:53:08.072Z,2.25
2022-08-05T14:58:13.919Z,2.45
2022-08-05T15:03:15.847Z,5.45
2022-08-05T15:08:58.341Z,12.35
2022-08-05T15:13:46.069Z,3.15
2022-08-05T15:18:49.388Z,8.20
2022-08-05T15:23:50.983Z,3.63
2022-08-05T15:28:53.088Z,2.38
2022-08-05T15:34:05.722Z,2.75
2022-08-05T15:40:58.491Z,4.05
2022-08-05T15:44:41.499Z,5.38
2022-08-05T15:49:55.173Z,2.17
2022-08-05T15:55:00.821Z,2.88
2022-08-05T16:00:08.723Z,3.17
2022-08-05T16:05:11.394Z,3.03
2022-08-05T16:10:13.173Z,4.00
2022-08-05T16:15:18.566Z,2.67
2022-08-05T16:20:20.636Z,2.90
2022-08-05T16:25:22.278Z,1.35
2022-08-05T16:30:36.101Z,1.30
2022-08-05T16:40:52.164Z,1.63
2022-08-05T16:46:07.464Z,8.63
2022-08-05T16:51:20.700Z,1.80
2022-08-05T16:56:24.310Z,5.32
2022-08-05T17:01:26.089Z,2.75
2022-08-05T17:06:28.826Z,1.55
2022-08-05T17:11:31.209Z,1.20
2022-08-05T17:16:48.545Z,2.17
2022-08-05T17:21:55.541Z,1.92
2022-08-05T17:26:58.524Z,1.42
2022-08-05T17:32:00.177Z,0.63
2022-08-05T17:37:02.726Z,1.80
2022-08-05T17:42:28.553Z,0.82
2022-08-05T17:47:28.627Z,4.00
2022-08-05T17:52:33.555Z,1.20
2022-08-05T17:57:35.068Z,0.88
2022-08-05T18:02:39.456Z,1.27
2022-08-05T18:07:42.397Z,0.50
2022-08-05T18:12:44.178Z,1.75
2022-08-05T18:17:58.812Z,2.92
2022-08-05T18:23:09.210Z,1.08
2022-08-05T18:28:16.247Z,2.83
2022-08-05T18:33:22.550Z,2.55
2022-08-05T18:38:25.985Z,0.80
2022-08-05T18:43:31.632Z,2.83
2022-08-05T18:48:41.801Z,2.63
2022-08-05T18:53:50.197Z,1.63
2022-08-05T18:58:54.705Z,3.13
2022-08-05T19:08:58.351Z,1.38
2022-08-05T19:14:19.980Z,2.25
2022-08-05T19:19:24.865Z,1.52
2022-08-05T19:24:34.527Z,1.58
2022-08-05T19:29:37.165Z,6.38
2022-08-05T19:34:40.628Z,2.72
2022-08-05T19:39:45.501Z,1.88
2022-08-05T19:44:53.836Z,0.85
2022-08-05T19:50:00.791Z,2.45
2022-08-05T19:55:07.553Z,1.88
2022-08-05T20:00:24.327Z,2.45
2022-08-05T20:05:26.530Z,5.30
2022-08-05T20:10:45.095Z,1.02
2022-08-05T20:15:57.641Z,1.85
2022-08-05T20:20:59.972Z,2.40
2022-08-05T20:26:02.726Z,2.97
2022-08-05T20:31:04.669Z,2.50
2022-08-05T20:36:06.658Z,3.75
2022-08-05T20:41:11.721Z,1.50
2022-08-05T20:46:25.617Z,0.80
2022-08-05T20:51:27.944Z,2.00
2022-08-05T20:56:34.092Z,1.10
2022-08-05T21:01:37.563Z,1.70
2022-08-05T21:06:45.337Z,2.15
2022-08-05T21:12:10.241Z,3.42
2022-08-05T21:17:09.545Z,2.75
2022-08-05T21:22:11.094Z,4.28
2022-08-05T21:27:13.436Z,3.20
2022-08-05T21:32:19.772Z,5.72
2022-08-05T21:37:21.801Z,2.65
2022-08-05T21:42:41.473Z,4.78
2022-08-05T21:47:56.924Z,3.95
2022-08-05T21:53:08.482Z,4.63
2022-08-05T21:58:19.297Z,1.50
2022-08-05T22:03:53.243Z,3.53
2022-08-05T22:08:42.990Z,3.08
2022-08-05T22:14:05.829Z,2.92
2022-08-05T22:19:15.941Z,3.33
2022-08-05T22:24:52.230Z,6.30
2022-08-05T22:29:54.402Z,2.45
2022-08-05T22:34:55.925Z,3.00
2022-08-05T22:39:57.532Z,2.10
2022-08-05T22:44:59.761Z,3.95
2022-08-05T22:50:20.155Z,1.48
2022-08-05T22:55:24.081Z,2.30
2022-08-05T23:00:28.254Z,3.10
2022-08-05T23:05:36.156Z,2.63
2022-08-05T23:10:38.313Z,1.45
2022-08-05T23:15:40.619Z,2.38
2022-08-05T23:20:43.046Z,1.95
2022-08-05T23:25:51.863Z,2.80
2022-08-05T23:30:56.016Z,1.23
2022-08-05T23:36:16.295Z,2.75
2022-08-05T23:41:17.951Z,3.72
2022-08-05T23:46:21.995Z,0.80
2022-08-05T23:51:23.827Z,1.07
2022-08-05T23:56:27.277Z,1.58
